createdAt,value
2018-09-30T00:07:42.719Z,7.33
2018-09-30T00:17:46.336Z,7.20
2018-09-30T00:27:49.957Z,8.60
2018-09-30T00:37:53.544Z,7.83
2018-09-30T00:47:57.136Z,8.00
2018-09-30T00:58:00.692Z,6.80
2018-09-30T01:08:05.283Z,8.03
2018-09-30T01:18:08.890Z,6.17
2018-09-30T01:28:12.448Z,6.40
2018-09-30T01:38:16.052Z,6.60
2018-09-30T01:48:19.619Z,6.10
2018-09-30T01:58:23.219Z,5.67
2018-09-30T02:08:26.860Z,6.03
2018-09-30T02:18:31.012Z,5.77
2018-09-30T02:28:35.775Z,5.03
2018-09-30T02:38:40.011Z,5.13
2018-09-30T02:48:43.627Z,5.43
2018-09-30T02:58:47.577Z,4.87
2018-09-30T03:09:00.349Z,4.83
2018-09-30T03:19:08.079Z,5.23
2018-09-30T03:29:12.778Z,4.83
2018-09-30T03:39:16.375Z,4.83
2018-09-30T03:49:19.956Z,5.20
2018-09-30T03:59:23.564Z,5.00
2018-09-30T04:09:27.148Z,4.63
2018-09-30T04:19:30.765Z,5.20
2018-09-30T04:29:34.564Z,5.03
2018-09-30T04:39:38.636Z,5.13
2018-09-30T04:49:42.281Z,6.87
2018-09-30T04:59:45.881Z,6.73
2018-09-30T05:09:49.665Z,5.40
2018-09-30T05:19:53.606Z,4.80
2018-09-30T05:29:57.188Z,3.93
2018-09-30T05:40:04.616Z,4.37
2018-09-30T05:50:08.221Z,4.40
2018-09-30T06:00:15.969Z,4.30
2018-09-30T06:10:20.132Z,4.67
2018-09-30T06:20:23.738Z,4.47
2018-09-30T06:30:27.268Z,4.80
2018-09-30T06:40:31.529Z,5.77
2018-09-30T06:50:35.364Z,6.20
2018-09-30T07:00:38.915Z,5.57
2018-09-30T07:10:42.569Z,5.80
2018-09-30T07:20:46.854Z,6.00
2018-09-30T07:30:50.462Z,7.23
2018-09-30T07:40:54.141Z,6.00
2018-09-30T07:50:57.714Z,6.58
2018-09-30T08:01:01.857Z,6.33
2018-09-30T08:11:06.737Z,6.07
2018-09-30T08:21:14.668Z,6.30
2018-09-30T08:31:18.262Z,6.30
2018-09-30T08:41:21.841Z,6.00
2018-09-30T08:51:25.479Z,6.40
2018-09-30T09:01:29.181Z,6.20
2018-09-30T09:11:32.754Z,5.97
2018-09-30T09:21:36.809Z,5.50
2018-09-30T09:31:40.409Z,5.77
2018-09-30T09:41:43.972Z,5.47
2018-09-30T09:51:47.535Z,5.63
2018-09-30T10:01:51.141Z,5.77
2018-09-30T10:11:54.701Z,5.40
2018-09-30T10:22:02.874Z,4.50
2018-09-30T10:32:08.063Z,5.37
2018-09-30T10:42:11.657Z,5.17
2018-09-30T10:52:15.245Z,5.03
2018-09-30T11:02:18.850Z,4.70
2018-09-30T11:12:23.104Z,4.60
2018-09-30T11:22:27.278Z,4.00
2018-09-30T11:32:31.301Z,4.23
2018-09-30T11:42:34.893Z,3.60
2018-09-30T11:52:40.640Z,3.97
2018-09-30T12:02:44.730Z,3.60
2018-09-30T12:12:52.554Z,4.07
2018-09-30T12:22:56.158Z,3.43
2018-09-30T12:32:59.773Z,3.60
2018-09-30T12:43:03.337Z,3.67
2018-09-30T12:53:07.044Z,3.70
2018-09-30T13:03:11.071Z,3.47
2018-09-30T13:13:14.718Z,4.33
2018-09-30T13:23:18.288Z,4.50
2018-09-30T13:33:21.928Z,4.20
2018-09-30T13:43:27.072Z,4.73
2018-09-30T13:53:30.638Z,5.20
2018-09-30T14:03:36.499Z,5.83
2018-09-30T14:13:41.272Z,6.27
2018-09-30T14:23:50.239Z,7.33
2018-09-30T14:33:54.379Z,7.43
2018-09-30T14:44:13.153Z,9.03
2018-09-30T14:54:20.713Z,8.53
2018-09-30T15:04:24.779Z,9.10
2018-09-30T15:14:28.352Z,8.50
2018-09-30T15:24:32.533Z,8.07
2018-09-30T15:34:37.103Z,7.10
2018-09-30T15:44:40.793Z,5.50
2018-09-30T15:54:44.417Z,5.37
2018-09-30T16:04:48.112Z,5.10
2018-09-30T16:14:52.800Z,5.53
2018-09-30T16:24:57.404Z,5.47
2018-09-30T16:35:01.170Z,5.57
2018-09-30T16:45:04.751Z,5.30
2018-09-30T16:55:08.452Z,4.73
2018-09-30T17:05:12.180Z,6.13
2018-09-30T17:15:15.910Z,5.65
2018-09-30T17:25:24.231Z,6.67
2018-09-30T17:35:31.889Z,6.33
2018-09-30T17:45:35.663Z,6.20
2018-09-30T17:55:41.581Z,7.43
2018-09-30T18:05:45.232Z,5.90
2018-09-30T18:15:48.867Z,5.00
2018-09-30T18:25:52.467Z,4.40
2018-09-30T18:35:56.584Z,4.70
2018-09-30T18:46:00.520Z,4.03
2018-09-30T18:56:04.663Z,4.70
2018-09-30T19:06:08.521Z,4.90
2018-09-30T19:16:13.582Z,4.90
2018-09-30T19:26:17.198Z,5.00
2018-09-30T19:36:20.839Z,4.87
2018-09-30T19:46:24.909Z,4.53
2018-09-30T19:56:28.560Z,4.67
2018-09-30T20:06:32.660Z,5.33
2018-09-30T20:16:37.407Z,5.73
2018-09-30T20:26:40.997Z,5.17
2018-09-30T20:36:44.551Z,5.60
2018-09-30T20:46:48.096Z,5.80
2018-09-30T20:56:51.674Z,5.57
2018-09-30T21:06:59.630Z,6.50
2018-09-30T21:17:03.200Z,6.47
2018-09-30T21:27:07.341Z,6.30
2018-09-30T21:37:11.020Z,7.30
2018-09-30T21:47:14.689Z,6.47
2018-09-30T21:57:18.307Z,6.37
2018-09-30T22:07:21.968Z,6.90
2018-09-30T22:17:29.385Z,7.07
2018-09-30T22:27:32.947Z,6.87
2018-09-30T22:37:36.587Z,6.97
2018-09-30T22:47:40.526Z,7.07
2018-09-30T22:57:44.272Z,6.27
2018-09-30T23:07:47.858Z,6.13
2018-09-30T23:17:51.473Z,6.70
2018-09-30T23:27:55.082Z,6.13
2018-09-30T23:37:58.751Z,5.83
2018-09-30T23:48:02.300Z,5.50
2018-09-30T23:58:08.387Z,7.83
